createdAt,value
2023-05-13T00:00:03.195Z,3.72
2023-05-13T00:02:32.531Z,4.57
2023-05-13T00:05:00.310Z,3.60
2023-05-13T00:07:28.329Z,5.85
2023-05-13T00:09:56.390Z,5.10
2023-05-13T00:12:24.152Z,3.72
2023-05-13T00:14:51.933Z,3.67
2023-05-13T00:17:19.676Z,4.05
2023-05-13T00:19:48.783Z,3.60
2023-05-13T00:22:16.553Z,4.00
2023-05-13T00:24:44.278Z,4.13
2023-05-13T00:27:12.284Z,5.07
2023-05-13T00:29:40.028Z,4.20
2023-05-13T00:32:08.167Z,3.47
2023-05-13T00:34:35.875Z,3.58
2023-05-13T00:37:05.191Z,3.67
2023-05-13T00:39:33.265Z,4.13
2023-05-13T00:42:01.000Z,3.53
2023-05-13T00:44:28.837Z,4.50
2023-05-13T00:46:56.681Z,5.85
2023-05-13T00:49:24.420Z,4.03
2023-05-13T00:51:55.028Z,3.50
2023-05-13T00:54:24.142Z,4.03
2023-05-13T00:56:54.405Z,3.90
2023-05-13T00:59:22.410Z,3.58
2023-05-13T01:01:58.351Z,3.92
2023-05-13T01:04:37.698Z,3.42
2023-05-13T01:07:15.672Z,5.03
2023-05-13T01:09:55.257Z,4.43
2023-05-13T01:12:30.731Z,4.72
2023-05-13T01:15:05.241Z,3.63
2023-05-13T01:17:36.997Z,3.45
2023-05-13T01:20:09.344Z,3.40
2023-05-13T01:22:38.818Z,3.72
2023-05-13T01:25:09.337Z,3.85
2023-05-13T01:27:37.499Z,4.15
2023-05-13T01:30:06.974Z,3.40
2023-05-13T01:32:36.303Z,5.85
2023-05-13T01:35:05.324Z,3.30
2023-05-13T01:37:36.437Z,3.90
2023-05-13T01:40:17.139Z,3.58
2023-05-13T01:42:48.734Z,4.07
2023-05-13T01:45:18.928Z,5.20
2023-05-13T01:47:47.151Z,3.70
2023-05-13T01:50:16.999Z,3.88
2023-05-13T01:52:48.719Z,3.70
2023-05-13T01:55:23.139Z,3.30
2023-05-13T01:57:51.574Z,3.50
2023-05-13T02:00:20.309Z,3.67
2023-05-13T02:02:51.602Z,3.40
2023-05-13T02:05:22.400Z,4.40
2023-05-13T02:07:54.236Z,3.78
2023-05-13T02:10:23.974Z,5.32
2023-05-13T02:12:52.452Z,3.50
2023-05-13T02:15:20.747Z,3.92
2023-05-13T02:17:48.959Z,3.42
2023-05-13T02:20:17.107Z,3.30
2023-05-13T02:22:45.573Z,3.22
2023-05-13T02:25:13.632Z,3.42
2023-05-13T02:27:43.851Z,3.90
2023-05-13T02:30:12.953Z,3.50
2023-05-13T02:32:44.774Z,3.38
2023-05-13T02:35:12.950Z,4.18
2023-05-13T02:37:41.052Z,3.53
2023-05-13T02:40:10.266Z,3.60
2023-05-13T02:42:39.291Z,3.20
2023-05-13T02:45:12.027Z,4.28
2023-05-13T02:47:41.441Z,4.00
2023-05-13T02:50:10.144Z,4.32
2023-05-13T02:52:39.207Z,5.10
2023-05-13T02:55:10.764Z,5.38
2023-05-13T02:57:38.879Z,3.17
2023-05-13T03:00:11.114Z,5.13
2023-05-13T03:02:43.416Z,3.85
2023-05-13T03:05:13.660Z,3.65
2023-05-13T03:07:41.866Z,3.40
2023-05-13T03:10:14.020Z,4.20
2023-05-13T03:12:48.457Z,4.15
2023-05-13T03:15:20.861Z,3.67
2023-05-13T03:17:49.046Z,3.70
2023-05-13T03:20:17.309Z,3.55
2023-05-13T03:22:47.480Z,3.90
2023-05-13T03:25:15.647Z,3.50
2023-05-13T03:27:43.752Z,3.58
2023-05-13T03:30:15.417Z,3.70
2023-05-13T03:32:47.837Z,3.50
2023-05-13T03:35:16.057Z,4.85
2023-05-13T03:37:44.219Z,3.42
2023-05-13T03:40:15.440Z,3.95
2023-05-13T03:42:44.532Z,3.83
2023-05-13T03:45:19.905Z,3.42
2023-05-13T03:47:51.365Z,3.95
2023-05-13T03:50:21.497Z,3.83
2023-05-13T03:52:50.069Z,3.60
2023-05-13T03:55:18.099Z,4.63
2023-05-13T03:57:52.641Z,5.10
2023-05-13T04:00:20.829Z,3.47
2023-05-13T04:02:55.040Z,3.70
2023-05-13T04:05:23.313Z,3.78
2023-05-13T04:07:52.969Z,3.60
2023-05-13T04:10:21.483Z,3.83
2023-05-13T04:12:49.800Z,3.90
2023-05-13T04:15:18.049Z,3.70
2023-05-13T04:17:51.125Z,3.90
2023-05-13T04:20:22.389Z,3.53
2023-05-13T04:22:52.640Z,4.00
2023-05-13T04:25:20.940Z,3.63
2023-05-13T04:27:51.371Z,4.80
2023-05-13T04:30:19.580Z,3.72
2023-05-13T04:32:47.931Z,3.75
2023-05-13T04:35:18.324Z,3.70
2023-05-13T04:37:48.067Z,3.47
2023-05-13T04:40:19.502Z,5.15
2023-05-13T04:42:54.357Z,3.78
2023-05-13T04:45:22.453Z,4.03
2023-05-13T04:47:53.205Z,4.10
2023-05-13T04:50:23.459Z,3.78
2023-05-13T04:52:56.537Z,5.40
2023-05-13T04:55:27.882Z,5.25
2023-05-13T04:57:56.093Z,4.63
2023-05-13T05:00:24.899Z,3.85
2023-05-13T05:02:55.990Z,3.67
2023-05-13T05:05:26.664Z,3.67
2023-05-13T05:07:54.834Z,3.90
2023-05-13T05:10:25.073Z,4.20
2023-05-13T05:12:55.848Z,3.72
2023-05-13T05:15:24.206Z,3.75
2023-05-13T05:17:56.991Z,3.70
2023-05-13T05:20:29.328Z,4.70
2023-05-13T05:22:57.565Z,4.03
2023-05-13T05:25:25.870Z,4.95
2023-05-13T05:27:56.059Z,5.40
2023-05-13T05:30:24.789Z,3.33
2023-05-13T05:32:53.229Z,3.85
2023-05-13T05:35:21.411Z,3.45
2023-05-13T05:37:50.951Z,3.28
2023-05-13T05:40:20.063Z,4.20
2023-05-13T05:42:48.448Z,3.90
2023-05-13T05:45:19.197Z,3.88
2023-05-13T05:47:50.938Z,3.97
2023-05-13T05:50:35.882Z,3.92
2023-05-13T05:53:07.071Z,4.50
2023-05-13T05:55:36.955Z,5.43
2023-05-13T05:58:16.915Z,4.63
2023-05-13T06:00:47.700Z,3.83
2023-05-13T06:03:18.911Z,3.97
2023-05-13T06:05:48.851Z,4.35
2023-05-13T06:08:18.836Z,3.85
2023-05-13T06:10:47.111Z,3.80
2023-05-13T06:13:19.888Z,5.38
2023-05-13T06:15:48.006Z,3.72
2023-05-13T06:18:16.203Z,4.57
2023-05-13T06:20:44.204Z,5.68
2023-05-13T06:23:12.285Z,3.58
2023-05-13T06:25:41.873Z,4.32
2023-05-13T06:28:13.128Z,5.22
2023-05-13T06:30:46.239Z,4.50
2023-05-13T06:33:14.444Z,3.70
2023-05-13T06:35:43.102Z,5.03
2023-05-13T06:38:13.175Z,5.63
2023-05-13T06:40:43.799Z,4.45
2023-05-13T06:43:12.605Z,4.90
2023-05-13T06:45:40.785Z,4.40
2023-05-13T06:48:08.999Z,4.10
2023-05-13T06:50:39.862Z,5.15
2023-05-13T06:53:11.263Z,4.68
2023-05-13T06:55:41.921Z,3.80
2023-05-13T06:58:11.609Z,4.88
2023-05-13T07:00:42.930Z,3.92
2023-05-13T07:03:11.039Z,4.47
2023-05-13T07:05:39.011Z,4.13
2023-05-13T07:08:08.534Z,4.45
2023-05-13T07:10:37.909Z,3.63
2023-05-13T07:13:09.316Z,3.97
2023-05-13T07:15:38.831Z,3.60
2023-05-13T07:18:07.206Z,4.57
2023-05-13T07:20:35.216Z,5.45
2023-05-13T07:23:03.253Z,3.83
2023-05-13T07:25:31.348Z,4.22
2023-05-13T07:28:02.547Z,3.83
2023-05-13T07:30:30.686Z,3.67
2023-05-13T07:33:00.293Z,3.83
2023-05-13T07:35:34.462Z,4.93
2023-05-13T07:38:02.476Z,3.42
2023-05-13T07:40:33.687Z,5.70
2023-05-13T07:43:02.099Z,3.45
2023-05-13T07:45:33.239Z,6.10
2023-05-13T07:48:02.983Z,3.55
2023-05-13T07:50:33.017Z,3.85
2023-05-13T07:53:01.112Z,4.05
2023-05-13T07:55:35.394Z,3.28
2023-05-13T07:58:16.475Z,3.42
2023-05-13T08:00:45.219Z,5.25
2023-05-13T08:03:15.745Z,3.75
2023-05-13T08:05:44.150Z,4.57
2023-05-13T08:08:12.576Z,3.45
2023-05-13T08:10:43.351Z,3.42
2023-05-13T08:13:11.458Z,4.18
2023-05-13T08:15:41.311Z,5.05
2023-05-13T08:18:14.601Z,4.75
2023-05-13T08:20:46.992Z,5.90
2023-05-13T08:23:16.540Z,5.15
2023-05-13T08:25:45.190Z,6.18
2023-05-13T08:28:13.302Z,5.10
2023-05-13T08:30:44.154Z,3.95
2023-05-13T08:33:13.013Z,4.68
2023-05-13T08:35:42.908Z,5.85
2023-05-13T08:38:14.337Z,6.40
2023-05-13T08:40:47.734Z,6.72
2023-05-13T08:43:17.111Z,6.50
2023-05-13T08:45:48.187Z,4.68
2023-05-13T08:48:17.225Z,4.95
2023-05-13T08:50:51.731Z,4.00
2023-05-13T08:53:22.229Z,6.13
2023-05-13T08:55:51.122Z,8.27
2023-05-13T08:58:19.195Z,8.90
2023-05-13T09:00:47.634Z,10.57
2023-05-13T09:03:16.075Z,8.15
2023-05-13T09:05:44.980Z,11.88
2023-05-13T09:08:12.773Z,10.10
2023-05-13T09:10:41.962Z,16.08
2023-05-13T09:13:09.722Z,15.90
2023-05-13T09:15:37.462Z,12.95
2023-05-13T09:18:07.644Z,8.65
2023-05-13T09:20:37.279Z,13.05
2023-05-13T09:23:07.824Z,10.48
2023-05-13T09:25:36.028Z,9.38
2023-05-13T09:28:06.426Z,10.65
2023-05-13T09:30:35.872Z,6.40
2023-05-13T09:33:09.861Z,8.25
2023-05-13T09:35:38.888Z,8.70
2023-05-13T09:38:18.146Z,10.18
2023-05-13T09:40:52.787Z,8.77
2023-05-13T09:43:24.792Z,10.30
2023-05-13T09:45:55.817Z,6.30
2023-05-13T09:48:26.084Z,5.80
2023-05-13T09:50:55.254Z,10.55
2023-05-13T09:53:23.010Z,9.43
2023-05-13T09:55:52.517Z,6.82
2023-05-13T09:58:22.362Z,7.72
2023-05-13T10:00:50.238Z,11.45
2023-05-13T10:03:18.129Z,7.70
2023-05-13T10:05:46.117Z,9.48
2023-05-13T10:08:15.270Z,11.70
2023-05-13T10:10:45.543Z,7.20
2023-05-13T10:13:15.561Z,7.00
2023-05-13T10:15:50.282Z,8.63
2023-05-13T10:18:19.306Z,7.20
2023-05-13T10:20:52.614Z,7.18
2023-05-13T10:23:20.854Z,9.57
2023-05-13T10:25:49.318Z,6.65
2023-05-13T10:28:17.157Z,7.43
2023-05-13T10:30:47.179Z,7.78
2023-05-13T10:33:15.334Z,9.93
2023-05-13T10:35:49.948Z,11.60
2023-05-13T10:38:22.293Z,9.50
2023-05-13T10:41:08.075Z,6.97
2023-05-13T10:43:36.290Z,7.70
2023-05-13T10:46:06.709Z,4.70
2023-05-13T10:48:41.680Z,8.32
2023-05-13T10:51:11.243Z,4.97
2023-05-13T10:53:45.549Z,5.78
2023-05-13T10:56:13.550Z,7.07
2023-05-13T10:58:41.635Z,4.65
2023-05-13T11:01:26.904Z,4.22
2023-05-13T11:03:56.977Z,6.93
2023-05-13T11:06:26.995Z,5.93
2023-05-13T11:08:56.255Z,6.65
2023-05-13T11:11:32.849Z,4.88
2023-05-13T11:14:09.558Z,6.18
2023-05-13T11:16:38.912Z,5.82
2023-05-13T11:19:19.197Z,9.82
2023-05-13T11:21:50.399Z,5.07
2023-05-13T11:24:19.684Z,5.45
2023-05-13T11:26:48.885Z,6.63
2023-05-13T11:29:28.478Z,4.95
2023-05-13T11:32:00.267Z,8.45
2023-05-13T11:34:29.036Z,5.63
2023-05-13T11:37:07.000Z,3.72
2023-05-13T11:39:35.085Z,6.18
2023-05-13T11:42:07.503Z,6.70
2023-05-13T11:44:36.048Z,4.70
2023-05-13T11:47:07.886Z,12.50
2023-05-13T11:49:38.643Z,11.40
2023-05-13T11:52:07.936Z,6.20
2023-05-13T11:54:43.267Z,3.55
2023-05-13T11:57:20.974Z,6.43
2023-05-13T11:59:57.290Z,6.40
2023-05-13T12:02:28.026Z,7.60
2023-05-13T12:04:56.957Z,9.10
2023-05-13T12:07:25.803Z,6.30
2023-05-13T12:09:57.570Z,6.80
2023-05-13T12:12:27.604Z,5.07
2023-05-13T12:14:56.520Z,6.18
2023-05-13T12:17:25.769Z,6.70
2023-05-13T12:20:06.890Z,11.93
2023-05-13T12:22:34.932Z,7.80
2023-05-13T12:25:19.655Z,6.43
2023-05-13T12:27:52.810Z,8.77
2023-05-13T12:30:20.559Z,11.73
2023-05-13T12:32:49.771Z,7.78
2023-05-13T12:35:17.733Z,3.28
2023-05-13T12:37:45.584Z,7.50
2023-05-13T12:40:14.533Z,6.35
2023-05-13T12:42:45.676Z,6.80
2023-05-13T12:45:13.469Z,4.30
2023-05-13T12:47:53.998Z,9.33
2023-05-13T12:50:21.878Z,8.10
2023-05-13T12:52:49.631Z,14.80
2023-05-13T12:55:17.875Z,13.50
2023-05-13T12:57:56.091Z,8.18
2023-05-13T13:00:24.649Z,5.05
2023-05-13T13:02:54.375Z,9.35
2023-05-13T13:05:22.890Z,5.45
2023-05-13T13:07:51.012Z,4.65
2023-05-13T13:10:19.109Z,4.30
2023-05-13T13:12:46.905Z,7.60
2023-05-13T13:15:14.640Z,6.68
2023-05-13T13:17:42.619Z,37.53
2023-05-13T13:20:12.388Z,45.92
2023-05-13T13:22:40.254Z,17.77
2023-05-13T13:25:08.490Z,11.32
2023-05-13T13:27:36.294Z,9.27
2023-05-13T13:30:04.328Z,6.50
2023-05-13T13:32:35.217Z,8.25
2023-05-13T13:35:03.299Z,6.20
2023-05-13T13:37:32.375Z,15.90
2023-05-13T13:40:00.133Z,7.32
2023-05-13T13:42:36.822Z,9.35
2023-05-13T13:45:12.519Z,5.78
2023-05-13T13:47:40.400Z,5.40
2023-05-13T13:50:08.610Z,4.72
2023-05-13T13:52:37.744Z,4.30
2023-05-13T13:55:06.379Z,5.10
2023-05-13T13:57:34.119Z,6.25
2023-05-13T14:00:01.885Z,5.88
2023-05-13T14:02:29.833Z,4.93
2023-05-13T14:04:57.698Z,3.72
2023-05-13T14:07:25.593Z,7.32
2023-05-13T14:09:55.141Z,4.15
2023-05-13T14:12:22.873Z,4.80
2023-05-13T14:14:50.710Z,11.98
2023-05-13T14:17:18.650Z,9.48
2023-05-13T14:19:46.657Z,10.55
2023-05-13T14:22:14.713Z,5.35
2023-05-13T14:24:42.420Z,7.95
2023-05-13T14:27:11.531Z,6.30
2023-05-13T14:29:39.236Z,5.43
2023-05-13T14:32:07.589Z,3.20
2023-05-13T14:34:35.749Z,5.22
2023-05-13T14:37:03.520Z,5.35
2023-05-13T14:39:31.232Z,4.95
2023-05-13T14:41:58.961Z,3.88
2023-05-13T14:44:28.101Z,4.95
2023-05-13T14:46:56.383Z,6.63
2023-05-13T14:49:24.207Z,5.25
2023-05-13T14:51:51.939Z,5.90
2023-05-13T14:54:19.703Z,6.93
2023-05-13T14:56:47.579Z,5.95
2023-05-13T14:59:15.452Z,4.90
2023-05-13T15:01:44.663Z,5.38
2023-05-13T15:04:12.450Z,4.25
2023-05-13T15:06:40.209Z,5.38
2023-05-13T15:09:07.956Z,4.55
2023-05-13T15:11:37.109Z,4.47
2023-05-13T15:14:04.856Z,4.50
2023-05-13T15:16:33.056Z,4.70
2023-05-13T15:19:02.592Z,4.68
2023-05-13T15:21:31.098Z,6.40
2023-05-13T15:23:58.851Z,6.07
2023-05-13T15:26:26.830Z,5.95
2023-05-13T15:28:54.571Z,3.38
2023-05-13T15:31:22.300Z,11.30
2023-05-13T15:33:50.029Z,6.93
2023-05-13T15:36:19.215Z,5.50
2023-05-13T15:38:47.083Z,6.63
2023-05-13T15:41:14.799Z,4.68
2023-05-13T15:43:42.564Z,5.10
2023-05-13T15:46:10.364Z,6.03
2023-05-13T15:48:38.185Z,7.28
2023-05-13T15:51:07.048Z,6.50
2023-05-13T15:53:36.157Z,6.38
2023-05-13T15:56:03.954Z,6.95
2023-05-13T15:58:31.773Z,12.07
2023-05-13T16:00:59.873Z,12.30
2023-05-13T16:03:27.589Z,9.77
2023-05-13T16:05:55.807Z,6.47
2023-05-13T16:08:23.513Z,7.68
2023-05-13T16:10:52.562Z,6.40
2023-05-13T16:13:21.490Z,41.00
2023-05-13T16:15:49.644Z,11.80
2023-05-13T16:18:17.489Z,7.32
2023-05-13T16:20:45.389Z,9.75
2023-05-13T16:23:13.466Z,6.80
2023-05-13T16:25:41.709Z,5.97
2023-05-13T16:28:11.296Z,6.03
2023-05-13T16:30:39.426Z,6.50
2023-05-13T16:33:09.281Z,4.30
2023-05-13T16:35:37.867Z,4.90
2023-05-13T16:38:05.890Z,6.63
2023-05-13T16:40:33.662Z,4.82
2023-05-13T16:43:03.389Z,7.45
2023-05-13T16:45:33.025Z,4.40
2023-05-13T16:48:00.849Z,5.50
2023-05-13T16:50:28.732Z,6.15
2023-05-13T16:52:56.900Z,5.13
2023-05-13T16:55:25.943Z,5.75
2023-05-13T16:57:53.834Z,6.80
2023-05-13T17:00:21.751Z,5.00
2023-05-13T17:02:51.119Z,6.55
2023-05-13T17:05:19.346Z,6.13
2023-05-13T17:07:47.151Z,5.38
2023-05-13T17:10:14.926Z,9.18
2023-05-13T17:12:42.672Z,15.93
2023-05-13T17:15:11.030Z,14.27
2023-05-13T17:17:38.844Z,14.48
2023-05-13T17:20:09.367Z,13.98
2023-05-13T17:22:37.093Z,8.32
2023-05-13T17:25:05.591Z,11.45
2023-05-13T17:27:33.323Z,10.15
2023-05-13T17:30:01.028Z,8.07
2023-05-13T17:32:28.814Z,7.00
2023-05-13T17:34:56.586Z,5.40
2023-05-13T17:37:25.724Z,6.38
2023-05-13T17:39:54.668Z,4.93
2023-05-13T17:42:22.702Z,6.97
2023-05-13T17:44:50.479Z,4.40
2023-05-13T17:47:18.251Z,3.72
2023-05-13T17:49:45.974Z,5.43
2023-05-13T17:52:13.726Z,4.00
2023-05-13T17:54:42.800Z,4.70
2023-05-13T17:57:11.031Z,4.63
2023-05-13T17:59:38.833Z,5.82
2023-05-13T18:03:14.961Z,4.78
2023-05-13T18:06:44.017Z,5.00
2023-05-13T18:28:37.651Z,3.78
2023-05-13T18:32:53.159Z,4.25
2023-05-13T18:39:34.633Z,3.80
2023-05-13T18:49:48.885Z,3.88
2023-05-13T18:59:49.621Z,7.15
2023-05-13T19:09:57.870Z,6.15
2023-05-13T19:13:33.195Z,7.25
2023-05-13T19:16:08.854Z,8.68
2023-05-13T19:18:42.554Z,6.95
2023-05-13T19:21:23.880Z,7.25
2023-05-13T19:23:54.136Z,7.55
2023-05-13T19:26:56.281Z,6.03
2023-05-13T19:29:31.716Z,9.02
2023-05-13T19:39:02.984Z,7.40
2023-05-13T19:45:12.571Z,5.43
2023-05-13T19:48:27.728Z,4.68
2023-05-13T19:54:52.338Z,4.30
2023-05-13T19:58:25.902Z,5.40
2023-05-13T20:01:01.913Z,4.93
2023-05-13T20:03:34.837Z,4.25
2023-05-13T20:06:10.567Z,5.20
2023-05-13T20:09:31.081Z,4.10
2023-05-13T20:12:25.794Z,3.92
2023-05-13T20:14:58.835Z,4.78
2023-05-13T20:17:50.685Z,4.90
2023-05-13T20:20:45.195Z,4.53
2023-05-13T20:23:36.895Z,3.90
2023-05-13T20:26:36.305Z,4.05
2023-05-13T20:29:28.456Z,3.75
2023-05-13T20:32:20.275Z,3.78
2023-05-13T20:35:09.684Z,4.40
2023-05-13T20:37:54.127Z,3.60
2023-05-13T20:43:33.711Z,3.42
2023-05-13T20:46:19.099Z,3.92
2023-05-13T20:48:55.535Z,3.67
2023-05-13T20:51:34.271Z,3.30
2023-05-13T20:54:18.745Z,4.20
2023-05-13T20:56:55.429Z,4.75
2023-05-13T21:00:30.101Z,3.00
2023-05-13T21:03:09.476Z,3.28
2023-05-13T21:09:28.394Z,3.40
2023-05-13T21:12:50.753Z,3.13
2023-05-13T21:15:28.317Z,3.47
2023-05-13T21:18:25.566Z,3.28
2023-05-13T21:21:55.425Z,2.88
2023-05-13T21:27:14.800Z,2.95
2023-05-13T21:30:35.034Z,2.80
2023-05-13T21:33:30.153Z,2.50
2023-05-13T21:36:08.260Z,4.05
2023-05-13T21:39:09.151Z,2.67
2023-05-13T21:42:07.711Z,2.92
2023-05-13T21:45:06.891Z,2.63
2023-05-13T21:48:34.426Z,2.97
2023-05-13T21:54:21.879Z,2.60
2023-05-13T21:57:30.187Z,2.95
2023-05-13T22:00:35.052Z,2.78
2023-05-13T22:03:41.849Z,2.40
2023-05-13T22:07:19.730Z,2.60
2023-05-13T22:10:24.366Z,2.53
2023-05-13T22:13:25.303Z,2.85
2023-05-13T22:16:28.274Z,3.53
2023-05-13T22:19:27.110Z,3.78
2023-05-13T22:22:59.705Z,2.40
2023-05-13T22:29:03.733Z,2.60
2023-05-13T22:31:58.756Z,2.40
2023-05-13T22:37:50.251Z,2.25
2023-05-13T22:40:39.135Z,2.60
2023-05-13T22:43:26.861Z,2.80
2023-05-13T22:46:21.219Z,2.20
2023-05-13T22:52:45.046Z,2.58
2023-05-13T22:55:51.849Z,2.45
2023-05-13T22:58:52.540Z,2.53
2023-05-13T23:01:28.598Z,2.42
2023-05-13T23:04:58.856Z,2.40
2023-05-13T23:08:11.008Z,2.40
2023-05-13T23:11:48.354Z,2.83
2023-05-13T23:18:35.645Z,2.88
2023-05-13T23:21:50.738Z,2.10
2023-05-13T23:24:56.137Z,2.25
2023-05-13T23:35:22.170Z,2.60
2023-05-13T23:38:53.589Z,2.42
2023-05-13T23:42:43.030Z,2.13
2023-05-13T23:49:39.472Z,2.15
2023-05-13T23:56:40.554Z,2.55
2023-05-13T23:59:47.049Z,2.90
